createdAt,value
2023-05-15T00:00:14.579Z,25.92
2023-05-15T00:00:48.189Z,26.25
2023-05-15T00:01:23.399Z,23.60
2023-05-15T00:01:55.707Z,33.65
2023-05-15T00:02:28.013Z,21.17
2023-05-15T00:03:03.121Z,23.80
2023-05-15T00:03:35.361Z,13.65
2023-05-15T00:04:07.723Z,25.80
2023-05-15T00:04:42.564Z,25.45
2023-05-15T00:05:15.005Z,26.30
2023-05-15T00:05:47.244Z,20.73
2023-05-15T00:06:20.181Z,25.83
2023-05-15T00:06:55.019Z,21.60
2023-05-15T00:07:27.246Z,28.45
2023-05-15T00:07:59.444Z,27.08
2023-05-15T00:08:34.577Z,19.98
2023-05-15T00:09:06.702Z,22.33
2023-05-15T00:09:39.253Z,19.27
2023-05-15T00:10:13.987Z,25.15
2023-05-15T00:10:57.572Z,18.38
2023-05-15T00:11:35.929Z,30.27
2023-05-15T00:12:11.433Z,24.88
2023-05-15T00:12:43.698Z,21.70
2023-05-15T00:13:17.355Z,29.10
2023-05-15T00:13:52.411Z,20.88
2023-05-15T00:14:25.467Z,22.25
2023-05-15T00:14:57.621Z,22.33
2023-05-15T00:15:32.399Z,34.05
2023-05-15T00:16:05.003Z,19.40
2023-05-15T00:16:37.254Z,29.75
2023-05-15T00:17:12.759Z,22.85
2023-05-15T00:17:44.948Z,35.60
2023-05-15T00:18:17.186Z,24.17
2023-05-15T00:18:49.395Z,35.08
2023-05-15T00:19:24.185Z,22.42
2023-05-15T00:19:57.962Z,21.60
2023-05-15T00:20:30.122Z,19.67
2023-05-15T00:21:05.053Z,52.08
2023-05-15T00:21:37.827Z,30.10
2023-05-15T00:22:10.093Z,30.48
2023-05-15T00:22:44.848Z,18.73
2023-05-15T00:23:17.029Z,34.50
2023-05-15T00:23:49.264Z,16.50
2023-05-15T00:24:24.880Z,22.48
2023-05-15T00:24:57.292Z,21.58
2023-05-15T00:25:29.650Z,20.13
2023-05-15T00:26:01.796Z,12.75
2023-05-15T00:26:39.607Z,16.00
2023-05-15T00:27:11.746Z,37.35
2023-05-15T00:27:43.878Z,16.13
2023-05-15T00:28:18.618Z,43.10
2023-05-15T00:28:50.982Z,12.50
2023-05-15T00:29:23.873Z,14.20
2023-05-15T00:29:58.609Z,14.15
2023-05-15T00:30:30.796Z,17.88
2023-05-15T00:31:03.016Z,18.60
2023-05-15T00:31:35.275Z,29.15
2023-05-15T00:32:10.823Z,29.05
2023-05-15T00:32:43.193Z,15.60
2023-05-15T00:33:15.857Z,35.80
2023-05-15T00:33:50.981Z,19.15
2023-05-15T00:34:23.272Z,27.88
2023-05-15T00:34:55.505Z,20.65
2023-05-15T00:35:28.411Z,26.73
2023-05-15T00:36:03.153Z,18.13
2023-05-15T00:36:35.771Z,30.83
2023-05-15T00:37:08.738Z,16.35
2023-05-15T00:37:43.623Z,14.80
2023-05-15T00:38:16.346Z,39.78
2023-05-15T00:38:48.553Z,19.42
2023-05-15T00:39:23.248Z,40.78
2023-05-15T00:39:55.516Z,17.33
2023-05-15T00:40:29.397Z,21.08
2023-05-15T00:41:04.466Z,17.25
2023-05-15T00:41:41.300Z,41.53
2023-05-15T00:42:13.753Z,50.35
2023-05-15T00:42:49.417Z,23.95
2023-05-15T00:43:22.974Z,37.28
2023-05-15T00:43:56.381Z,31.13
2023-05-15T00:44:33.580Z,17.63
2023-05-15T00:45:09.504Z,20.92
2023-05-15T00:45:42.966Z,22.42
2023-05-15T00:46:19.171Z,26.83
2023-05-15T00:46:53.505Z,30.63
2023-05-15T00:47:27.244Z,15.65
2023-05-15T00:48:03.647Z,15.18
2023-05-15T00:48:36.592Z,19.00
2023-05-15T00:49:13.757Z,15.57
2023-05-15T00:49:49.927Z,27.50
2023-05-15T00:50:24.984Z,80.53
2023-05-15T00:51:00.638Z,17.15
2023-05-15T00:51:33.204Z,21.58
2023-05-15T00:52:08.608Z,17.40
2023-05-15T00:52:43.464Z,22.52
2023-05-15T00:53:15.920Z,34.53
2023-05-15T00:53:48.900Z,22.38
2023-05-15T00:54:23.646Z,43.42
2023-05-15T00:54:55.844Z,18.02
2023-05-15T00:55:29.677Z,19.45
2023-05-15T00:56:06.985Z,14.13
2023-05-15T00:56:43.956Z,30.83
2023-05-15T00:57:17.736Z,16.42
2023-05-15T00:57:53.352Z,11.88
2023-05-15T00:58:27.810Z,41.35
2023-05-15T00:59:02.833Z,22.77
2023-05-15T00:59:37.867Z,15.38
2023-05-15T01:00:11.069Z,24.98
2023-05-15T01:00:43.879Z,11.93
2023-05-15T01:01:19.885Z,28.75
2023-05-15T01:01:52.184Z,18.08
2023-05-15T01:02:24.495Z,30.02
2023-05-15T01:02:59.408Z,23.33
2023-05-15T01:03:33.026Z,36.10
2023-05-15T01:04:06.002Z,16.40
2023-05-15T01:04:40.773Z,14.05
2023-05-15T01:05:13.697Z,18.90
2023-05-15T01:05:46.528Z,35.03
2023-05-15T01:06:21.388Z,32.70
2023-05-15T01:06:54.222Z,17.55
2023-05-15T01:07:27.153Z,37.80
2023-05-15T01:08:09.683Z,14.15
2023-05-15T01:08:46.106Z,19.92
2023-05-15T01:09:19.668Z,34.15
2023-05-15T01:09:56.148Z,15.68
2023-05-15T01:10:28.783Z,27.58
2023-05-15T01:11:03.202Z,26.40
2023-05-15T01:11:40.765Z,17.00
2023-05-15T01:12:16.236Z,46.08
2023-05-15T01:12:53.459Z,10.38
2023-05-15T01:13:28.284Z,30.50
2023-05-15T01:14:00.666Z,16.35
2023-05-15T01:14:32.808Z,23.67
2023-05-15T01:15:08.669Z,21.92
2023-05-15T01:15:41.667Z,23.77
2023-05-15T01:16:16.374Z,14.15
2023-05-15T01:16:48.618Z,19.38
2023-05-15T01:17:20.734Z,20.08
2023-05-15T01:17:55.577Z,26.58
2023-05-15T01:18:32.640Z,16.33
2023-05-15T01:19:05.697Z,21.80
2023-05-15T01:19:41.229Z,16.60
2023-05-15T01:20:18.556Z,21.88
2023-05-15T01:21:09.762Z,13.52
2023-05-15T01:22:25.761Z,25.17
2023-05-15T01:23:12.533Z,10.75
2023-05-15T01:23:58.584Z,18.77
2023-05-15T01:24:50.281Z,15.38
2023-05-15T01:26:06.437Z,13.68
2023-05-15T01:27:08.258Z,24.02
2023-05-15T01:28:25.168Z,15.93
2023-05-15T01:29:01.731Z,42.33
2023-05-15T01:29:41.605Z,12.57
2023-05-15T01:30:22.036Z,23.85
2023-05-15T01:30:57.761Z,16.08
2023-05-15T01:31:32.181Z,19.13
2023-05-15T01:32:12.017Z,17.08
2023-05-15T01:32:51.309Z,8.65
2023-05-15T01:33:31.631Z,15.35
2023-05-15T01:34:07.447Z,10.98
2023-05-15T01:34:49.084Z,13.13
2023-05-15T01:35:29.420Z,10.80
2023-05-15T01:36:43.269Z,8.65
2023-05-15T01:37:24.226Z,23.33
2023-05-15T01:38:03.386Z,21.50
2023-05-15T01:38:39.386Z,23.77
2023-05-15T01:39:14.773Z,10.95
2023-05-15T01:39:50.160Z,19.42
2023-05-15T01:40:26.494Z,18.60
2023-05-15T01:41:03.369Z,27.73
2023-05-15T01:41:44.461Z,26.27
2023-05-15T01:42:24.033Z,19.90
2023-05-15T01:43:00.924Z,35.97
2023-05-15T01:43:38.194Z,13.73
2023-05-15T01:44:15.755Z,21.45
2023-05-15T01:44:53.781Z,15.80
2023-05-15T01:45:31.049Z,13.18
2023-05-15T01:46:04.209Z,17.25
2023-05-15T01:46:39.705Z,17.23
2023-05-15T01:47:17.841Z,21.10
2023-05-15T01:47:53.489Z,24.40
2023-05-15T01:48:27.839Z,29.42
2023-05-15T01:49:06.014Z,28.13
2023-05-15T01:49:38.885Z,38.95
2023-05-15T01:50:15.652Z,18.73
2023-05-15T01:50:51.464Z,42.75
2023-05-15T01:51:28.751Z,12.88
2023-05-15T01:52:07.108Z,32.90
2023-05-15T01:52:44.129Z,14.30
2023-05-15T01:53:21.713Z,17.92
2023-05-15T01:53:54.758Z,16.20
2023-05-15T01:54:29.266Z,30.75
2023-05-15T01:55:03.266Z,28.95
2023-05-15T01:55:38.568Z,27.08
2023-05-15T01:56:15.625Z,15.55
2023-05-15T01:56:48.234Z,16.95
2023-05-15T01:57:27.459Z,16.40
2023-05-15T01:58:01.959Z,17.10
2023-05-15T01:58:34.657Z,24.45
2023-05-15T01:59:11.378Z,18.48
2023-05-15T01:59:45.079Z,15.35
2023-05-15T02:00:18.237Z,15.73
2023-05-15T02:00:54.113Z,27.25
2023-05-15T02:01:27.934Z,16.95
2023-05-15T02:02:01.185Z,43.55
2023-05-15T02:02:33.838Z,21.58
2023-05-15T02:03:09.891Z,23.75
2023-05-15T02:03:42.770Z,12.75
2023-05-15T02:04:15.730Z,20.25
2023-05-15T02:04:52.158Z,15.07
2023-05-15T02:05:26.898Z,16.65
2023-05-15T02:06:02.246Z,15.93
2023-05-15T02:06:34.603Z,16.55
2023-05-15T02:07:07.566Z,13.13
2023-05-15T02:07:43.717Z,31.98
2023-05-15T02:08:16.933Z,18.45
2023-05-15T02:08:50.151Z,21.50
2023-05-15T02:09:26.659Z,32.20
2023-05-15T02:10:00.181Z,18.90
2023-05-15T02:10:33.442Z,13.82
2023-05-15T02:11:09.128Z,22.75
2023-05-15T02:11:42.081Z,22.50
2023-05-15T02:12:15.443Z,17.73
2023-05-15T02:12:53.057Z,19.98
2023-05-15T02:13:27.707Z,25.65
2023-05-15T02:14:01.652Z,22.92
2023-05-15T02:14:37.854Z,21.65
2023-05-15T02:15:11.046Z,24.73
2023-05-15T02:15:43.729Z,26.33
2023-05-15T02:16:18.462Z,32.55
2023-05-15T02:16:51.332Z,29.45
2023-05-15T02:17:24.103Z,19.23
2023-05-15T02:17:58.996Z,57.08
2023-05-15T02:18:31.221Z,32.75
2023-05-15T02:19:03.634Z,24.73
2023-05-15T02:19:38.641Z,20.05
2023-05-15T02:20:11.709Z,28.95
2023-05-15T02:20:44.544Z,17.85
2023-05-15T02:21:19.318Z,24.25
2023-05-15T02:21:51.521Z,23.23
2023-05-15T02:22:23.705Z,20.58
2023-05-15T02:22:58.431Z,30.00
2023-05-15T02:23:30.612Z,29.80
2023-05-15T02:24:02.808Z,22.63
2023-05-15T02:24:34.956Z,14.20
2023-05-15T02:25:11.741Z,19.33
2023-05-15T02:25:50.440Z,19.45
2023-05-15T02:26:31.717Z,18.13
2023-05-15T02:27:14.694Z,28.45
2023-05-15T02:27:57.863Z,17.63
2023-05-15T02:28:43.224Z,24.92
2023-05-15T02:29:20.916Z,31.83
2023-05-15T02:30:04.549Z,27.40
2023-05-15T02:30:46.025Z,42.38
2023-05-15T02:31:25.246Z,15.38
2023-05-15T02:32:04.202Z,55.28
2023-05-15T02:32:50.155Z,48.83
2023-05-15T02:33:32.202Z,17.17
2023-05-15T02:34:12.645Z,12.57
2023-05-15T02:34:53.187Z,52.55
2023-05-15T02:35:36.023Z,27.52
2023-05-15T02:36:11.550Z,41.97
2023-05-15T02:36:50.399Z,31.52
2023-05-15T02:37:27.602Z,27.30
2023-05-15T02:38:03.251Z,37.55
2023-05-15T02:38:41.923Z,31.20
2023-05-15T02:39:16.464Z,39.88
2023-05-15T02:39:54.031Z,19.08
2023-05-15T02:40:30.862Z,25.80
2023-05-15T02:41:05.568Z,17.73
2023-05-15T02:41:39.421Z,26.52
2023-05-15T02:42:15.890Z,14.00
2023-05-15T02:42:52.856Z,25.08
2023-05-15T02:43:27.358Z,31.25
2023-05-15T02:44:03.457Z,22.63
2023-05-15T02:44:37.601Z,25.13
2023-05-15T02:45:11.659Z,27.70
2023-05-15T02:45:48.838Z,36.25
2023-05-15T02:46:25.519Z,32.90
2023-05-15T02:46:59.861Z,21.20
2023-05-15T02:47:36.427Z,39.30
2023-05-15T02:48:09.457Z,40.78
2023-05-15T02:48:43.719Z,28.60
2023-05-15T02:49:18.817Z,49.58
2023-05-15T02:49:52.397Z,56.58
2023-05-15T02:50:25.536Z,35.03
2023-05-15T02:51:00.526Z,65.05
2023-05-15T02:51:32.895Z,62.72
2023-05-15T02:52:06.042Z,38.58
2023-05-15T02:52:41.096Z,27.35
2023-05-15T02:53:14.682Z,79.63
2023-05-15T02:53:47.044Z,32.50
2023-05-15T02:54:22.416Z,21.52
2023-05-15T02:54:54.603Z,34.85
2023-05-15T02:55:27.119Z,36.22
2023-05-15T02:55:59.445Z,25.00
2023-05-15T02:56:34.244Z,35.58
2023-05-15T02:57:08.183Z,17.60
2023-05-15T02:57:40.538Z,20.20
2023-05-15T02:58:18.067Z,51.70
2023-05-15T02:58:50.406Z,34.35
2023-05-15T02:59:23.125Z,34.92
2023-05-15T02:59:59.016Z,19.35
2023-05-15T03:00:31.217Z,23.85
2023-05-15T03:01:04.768Z,25.30
2023-05-15T03:01:39.698Z,47.15
2023-05-15T03:02:12.034Z,38.85
2023-05-15T03:02:44.236Z,50.70
2023-05-15T03:03:19.014Z,17.38
2023-05-15T03:03:51.298Z,37.90
2023-05-15T03:04:23.823Z,26.45
2023-05-15T03:04:58.725Z,43.80
2023-05-15T03:05:30.882Z,23.08
2023-05-15T03:06:03.106Z,23.10
2023-05-15T03:06:37.925Z,31.40
2023-05-15T03:07:10.120Z,33.53
2023-05-15T03:07:42.493Z,30.90
2023-05-15T03:08:17.935Z,22.70
2023-05-15T03:08:50.078Z,34.95
2023-05-15T03:09:22.209Z,17.45
2023-05-15T03:09:56.913Z,39.70
2023-05-15T03:10:29.222Z,13.88
2023-05-15T03:11:01.480Z,37.83
2023-05-15T03:11:36.344Z,14.45
2023-05-15T03:12:10.234Z,29.85
2023-05-15T03:12:42.391Z,28.42
2023-05-15T03:13:19.775Z,28.17
2023-05-15T03:13:51.910Z,27.75
2023-05-15T03:14:24.257Z,37.97
2023-05-15T03:14:59.174Z,38.03
2023-05-15T03:15:31.501Z,37.85
2023-05-15T03:16:03.873Z,19.38
2023-05-15T03:16:39.286Z,35.72
2023-05-15T03:17:11.645Z,23.40
2023-05-15T03:17:44.004Z,60.20
2023-05-15T03:18:18.620Z,26.20
2023-05-15T03:18:53.765Z,35.70
2023-05-15T03:19:26.080Z,27.92
2023-05-15T03:19:58.372Z,45.53
2023-05-15T03:20:33.162Z,25.90
2023-05-15T03:21:05.930Z,41.75
2023-05-15T03:21:38.236Z,20.10
2023-05-15T03:22:13.072Z,22.02
2023-05-15T03:22:45.232Z,31.23
2023-05-15T03:23:17.362Z,29.45
2023-05-15T03:23:52.155Z,26.77
2023-05-15T03:24:24.427Z,54.08
2023-05-15T03:24:56.562Z,23.58
2023-05-15T03:25:31.545Z,26.70
2023-05-15T03:26:03.861Z,22.83
2023-05-15T03:26:36.051Z,16.67
2023-05-15T03:27:08.342Z,19.13
2023-05-15T03:27:43.227Z,20.92
2023-05-15T03:28:17.926Z,10.10
2023-05-15T03:28:50.086Z,71.65
2023-05-15T03:29:24.836Z,19.35
2023-05-15T03:29:57.312Z,25.85
2023-05-15T03:30:29.451Z,25.35
2023-05-15T03:31:05.099Z,46.97
2023-05-15T03:31:37.444Z,23.45
2023-05-15T03:32:09.678Z,25.55
2023-05-15T03:32:44.536Z,19.50
2023-05-15T03:33:16.726Z,39.00
2023-05-15T03:33:50.177Z,56.58
2023-05-15T03:34:24.908Z,34.40
2023-05-15T03:34:57.036Z,39.47
2023-05-15T03:35:29.238Z,35.08
2023-05-15T03:36:04.202Z,42.78
2023-05-15T03:36:38.902Z,21.13
2023-05-15T03:37:11.129Z,40.42
2023-05-15T03:37:43.342Z,65.00
2023-05-15T03:38:19.211Z,38.22
2023-05-15T03:38:51.476Z,73.93
2023-05-15T03:39:23.620Z,29.38
2023-05-15T03:39:58.356Z,22.85
2023-05-15T03:40:30.497Z,50.53
2023-05-15T03:41:03.097Z,41.38
2023-05-15T03:41:40.274Z,34.40
2023-05-15T03:42:12.469Z,63.35
2023-05-15T03:42:46.333Z,46.85
2023-05-15T03:43:23.608Z,66.10
2023-05-15T03:43:55.790Z,57.85
2023-05-15T03:44:27.957Z,24.77
2023-05-15T03:45:02.882Z,42.10
2023-05-15T03:45:35.371Z,34.15
2023-05-15T03:46:07.624Z,31.48
2023-05-15T03:46:42.539Z,24.30
2023-05-15T03:47:16.512Z,22.23
2023-05-15T03:47:48.790Z,44.30
2023-05-15T03:48:23.572Z,28.85
2023-05-15T03:48:56.181Z,38.85
2023-05-15T03:49:28.460Z,32.65
2023-05-15T03:50:03.488Z,60.90
2023-05-15T03:50:39.577Z,45.33
2023-05-15T03:51:11.835Z,69.88
2023-05-15T03:51:46.579Z,35.65
2023-05-15T03:52:19.344Z,32.58
2023-05-15T03:52:51.667Z,42.25
2023-05-15T03:53:26.494Z,30.35
2023-05-15T03:53:58.701Z,61.22
2023-05-15T03:54:30.976Z,74.70
2023-05-15T03:55:06.226Z,28.30
2023-05-15T03:55:38.490Z,26.35
2023-05-15T03:56:11.053Z,43.65
2023-05-15T03:56:45.780Z,26.95
2023-05-15T03:57:17.930Z,19.98
2023-05-15T03:57:51.015Z,41.08
2023-05-15T03:58:28.342Z,15.68
2023-05-15T03:59:00.522Z,34.97
2023-05-15T03:59:32.701Z,37.40
2023-05-15T04:00:11.211Z,78.47
2023-05-15T04:00:46.150Z,48.30
2023-05-15T04:01:18.330Z,25.88
2023-05-15T04:02:04.213Z,37.90
2023-05-15T04:02:38.248Z,35.40
2023-05-15T04:03:13.289Z,37.38
2023-05-15T04:03:45.607Z,60.67
2023-05-15T04:04:17.730Z,55.45
2023-05-15T04:04:52.827Z,63.05
2023-05-15T04:05:25.143Z,36.53
2023-05-15T04:05:57.449Z,54.05
2023-05-15T04:06:32.249Z,59.00
2023-05-15T04:07:05.034Z,77.60
2023-05-15T04:07:37.933Z,50.17
2023-05-15T04:08:13.054Z,91.07
2023-05-15T04:08:45.192Z,95.90
2023-05-15T04:09:17.614Z,50.88
2023-05-15T04:09:52.325Z,53.55
2023-05-15T04:10:24.760Z,75.65
2023-05-15T04:10:57.256Z,86.28
2023-05-15T04:11:32.110Z,37.00
2023-05-15T04:12:05.144Z,35.50
2023-05-15T04:12:37.578Z,49.47
2023-05-15T04:13:12.310Z,32.53
2023-05-15T04:13:47.122Z,58.85
2023-05-15T04:14:19.257Z,29.73
2023-05-15T04:14:54.026Z,47.55
2023-05-15T04:15:27.374Z,32.10
2023-05-15T04:16:00.169Z,73.78
2023-05-15T04:16:35.079Z,50.88
2023-05-15T04:17:07.309Z,42.05
2023-05-15T04:17:39.562Z,34.92
2023-05-15T04:18:14.334Z,29.88
2023-05-15T04:18:46.727Z,76.45
2023-05-15T04:19:19.081Z,45.97
2023-05-15T04:19:54.046Z,58.92
2023-05-15T04:20:26.320Z,57.20
2023-05-15T04:20:58.450Z,93.53
2023-05-15T04:21:30.682Z,62.70
2023-05-15T04:22:05.380Z,45.60
2023-05-15T04:22:37.572Z,65.78
2023-05-15T04:23:09.730Z,45.83
2023-05-15T04:23:44.414Z,49.30
2023-05-15T04:24:16.647Z,58.58
2023-05-15T04:24:48.770Z,56.45
2023-05-15T04:25:24.603Z,42.13
2023-05-15T04:25:57.147Z,76.70
2023-05-15T04:26:29.311Z,45.47
2023-05-15T04:27:04.521Z,76.25
2023-05-15T04:27:36.842Z,42.47
2023-05-15T04:28:08.962Z,70.63
2023-05-15T04:28:52.518Z,51.15
2023-05-15T04:29:37.446Z,68.55
2023-05-15T04:30:13.712Z,48.00
2023-05-15T04:30:46.206Z,62.80
2023-05-15T04:31:18.670Z,53.55
2023-05-15T04:31:53.601Z,33.28
2023-05-15T04:32:25.772Z,48.13
2023-05-15T04:33:00.556Z,67.78
2023-05-15T04:33:32.763Z,58.83
2023-05-15T04:34:05.333Z,51.50
2023-05-15T04:34:41.194Z,56.25
2023-05-15T04:35:14.372Z,105.85
2023-05-15T04:35:48.281Z,66.40
2023-05-15T04:36:21.101Z,38.80
2023-05-15T04:36:55.941Z,52.70
2023-05-15T04:37:28.215Z,59.78
2023-05-15T04:38:00.350Z,50.83
2023-05-15T04:38:35.345Z,54.75
2023-05-15T04:39:07.497Z,89.13
2023-05-15T04:39:39.735Z,54.70
2023-05-15T04:40:16.620Z,33.25
2023-05-15T04:40:49.060Z,36.95
2023-05-15T04:41:21.207Z,58.13
2023-05-15T04:41:56.017Z,43.42
2023-05-15T04:42:29.024Z,73.38
2023-05-15T04:43:03.152Z,17.30
2023-05-15T04:43:38.815Z,25.38
2023-05-15T04:44:11.590Z,59.42
2023-05-15T04:44:46.879Z,46.30
2023-05-15T04:45:21.862Z,39.92
2023-05-15T04:45:54.126Z,101.75
2023-05-15T04:46:26.673Z,56.67
2023-05-15T04:47:01.447Z,89.03
2023-05-15T04:47:33.668Z,56.22
2023-05-15T04:48:06.793Z,61.55
2023-05-15T04:48:41.620Z,46.17
2023-05-15T04:49:13.788Z,48.38
2023-05-15T04:49:47.939Z,80.38
2023-05-15T04:50:23.089Z,90.60
2023-05-15T04:50:55.488Z,71.65
2023-05-15T04:51:27.628Z,53.00
2023-05-15T04:52:02.346Z,120.47
2023-05-15T04:52:34.456Z,72.75
2023-05-15T04:53:06.721Z,116.68
2023-05-15T04:53:41.499Z,53.38
2023-05-15T04:54:13.675Z,94.97
2023-05-15T04:54:46.787Z,63.47
2023-05-15T04:55:21.606Z,81.60
2023-05-15T04:55:53.857Z,40.75
2023-05-15T04:56:26.024Z,65.15
2023-05-15T04:57:00.798Z,89.35
2023-05-15T04:57:32.983Z,67.32
2023-05-15T04:58:05.170Z,51.35
2023-05-15T04:58:39.980Z,49.33
2023-05-15T04:59:13.576Z,47.53
2023-05-15T04:59:48.277Z,71.28
2023-05-15T05:00:23.071Z,124.00
2023-05-15T05:00:55.251Z,61.78
2023-05-15T05:01:27.438Z,47.65
2023-05-15T05:02:02.402Z,52.92
2023-05-15T05:02:34.576Z,38.47
2023-05-15T05:03:09.366Z,48.90
2023-05-15T05:03:41.615Z,35.20
2023-05-15T05:04:14.987Z,30.00
2023-05-15T05:04:49.917Z,48.15
2023-05-15T05:05:22.292Z,47.75
2023-05-15T05:05:54.610Z,52.10
2023-05-15T05:06:30.440Z,28.83
2023-05-15T05:07:05.904Z,40.25
2023-05-15T05:07:38.082Z,61.05
2023-05-15T05:08:12.786Z,50.22
2023-05-15T05:08:44.914Z,65.00
2023-05-15T05:09:19.536Z,37.33
2023-05-15T05:09:54.275Z,36.15
2023-05-15T05:10:26.598Z,91.93
2023-05-15T05:10:58.732Z,68.85
2023-05-15T05:11:33.501Z,51.08
2023-05-15T05:12:06.734Z,95.25
2023-05-15T05:12:38.941Z,62.85
2023-05-15T05:13:13.799Z,56.60
2023-05-15T05:13:46.001Z,56.88
2023-05-15T05:14:18.154Z,41.05
2023-05-15T05:14:56.606Z,49.17
2023-05-15T05:15:28.836Z,66.07
2023-05-15T05:16:01.120Z,71.72
2023-05-15T05:16:36.003Z,90.07
2023-05-15T05:17:08.417Z,110.15
2023-05-15T05:17:43.160Z,85.82
2023-05-15T05:18:15.952Z,133.95
2023-05-15T05:18:48.217Z,146.07
2023-05-15T05:19:23.081Z,107.95
2023-05-15T05:19:55.253Z,122.03
2023-05-15T05:20:29.958Z,85.68
2023-05-15T05:21:02.372Z,88.43
2023-05-15T05:21:34.659Z,72.13
2023-05-15T05:22:09.502Z,113.22
2023-05-15T05:22:42.654Z,96.28
2023-05-15T05:23:15.328Z,128.50
2023-05-15T05:23:50.095Z,68.50
2023-05-15T05:24:22.313Z,90.07
2023-05-15T05:24:57.029Z,150.80
2023-05-15T05:25:29.176Z,127.63
2023-05-15T05:26:01.850Z,135.68
2023-05-15T05:26:37.272Z,120.10
2023-05-15T05:27:09.535Z,91.75
2023-05-15T05:27:41.723Z,76.95
2023-05-15T05:28:16.471Z,64.40
2023-05-15T05:28:48.735Z,107.28
2023-05-15T05:29:20.890Z,65.65
2023-05-15T05:29:58.241Z,83.55
2023-05-15T05:30:30.398Z,121.55
2023-05-15T05:31:03.316Z,100.07
2023-05-15T05:31:38.145Z,90.55
2023-05-15T05:32:10.355Z,69.43
2023-05-15T05:32:42.972Z,96.45
2023-05-15T05:33:18.140Z,152.77
2023-05-15T05:33:51.546Z,82.38
2023-05-15T05:34:23.743Z,77.88
2023-05-15T05:34:58.458Z,98.70
2023-05-15T05:35:30.842Z,98.50
2023-05-15T05:36:02.979Z,167.15
2023-05-15T05:36:37.682Z,132.25
2023-05-15T05:37:09.929Z,163.13
2023-05-15T05:37:42.086Z,146.02
2023-05-15T05:38:16.878Z,165.55
2023-05-15T05:38:49.032Z,166.00
2023-05-15T05:39:21.456Z,104.03
2023-05-15T05:39:56.286Z,157.65
2023-05-15T05:40:28.425Z,124.03
2023-05-15T05:41:01.570Z,77.68
2023-05-15T05:41:36.304Z,127.90
2023-05-15T05:42:08.487Z,159.75
2023-05-15T05:42:44.536Z,100.22
2023-05-15T05:43:16.686Z,111.47
2023-05-15T05:43:48.890Z,111.35
2023-05-15T05:44:23.677Z,96.82
2023-05-15T05:44:58.642Z,80.93
2023-05-15T05:45:31.297Z,108.35
2023-05-15T05:46:06.199Z,120.60
2023-05-15T05:46:38.650Z,148.23
2023-05-15T05:47:10.915Z,101.13
2023-05-15T05:47:45.735Z,135.90
2023-05-15T05:48:18.271Z,172.50
2023-05-15T05:48:50.745Z,130.35
2023-05-15T05:49:25.687Z,93.53
2023-05-15T05:49:58.061Z,77.57
2023-05-15T05:50:30.262Z,122.85
2023-05-15T05:51:05.281Z,96.30
2023-05-15T05:51:37.642Z,78.75
2023-05-15T05:52:10.210Z,126.78
2023-05-15T05:52:45.032Z,88.10
2023-05-15T05:53:17.176Z,98.72
2023-05-15T05:53:49.293Z,126.75
2023-05-15T05:54:23.977Z,92.50
2023-05-15T05:54:56.157Z,93.50
2023-05-15T05:55:28.356Z,78.05
2023-05-15T05:56:03.411Z,158.93
2023-05-15T05:56:35.660Z,109.55
2023-05-15T05:57:07.898Z,114.93
2023-05-15T05:57:42.810Z,133.27
2023-05-15T05:58:24.989Z,89.47
2023-05-15T05:59:02.289Z,111.57
2023-05-15T05:59:36.008Z,106.55
2023-05-15T06:00:12.725Z,116.00
2023-05-15T06:00:47.868Z,107.07
2023-05-15T06:01:20.102Z,115.93
2023-05-15T06:01:52.436Z,94.47
2023-05-15T06:02:27.602Z,94.35
2023-05-15T06:03:00.603Z,145.35
2023-05-15T06:03:34.109Z,104.40
2023-05-15T06:04:09.045Z,160.48
2023-05-15T06:04:41.389Z,128.25
2023-05-15T06:05:13.729Z,114.20
2023-05-15T06:05:48.798Z,98.78
2023-05-15T06:06:20.994Z,86.32
2023-05-15T06:06:53.959Z,89.07
2023-05-15T06:07:28.730Z,87.60
2023-05-15T06:08:04.232Z,72.03
2023-05-15T06:08:36.472Z,68.10
2023-05-15T06:09:11.273Z,90.53
2023-05-15T06:09:43.632Z,67.45
2023-05-15T06:10:16.087Z,99.80
2023-05-15T06:10:51.114Z,88.88
2023-05-15T06:11:25.156Z,71.80
2023-05-15T06:11:57.828Z,71.22
2023-05-15T06:12:32.667Z,79.60
2023-05-15T06:13:04.811Z,87.35
2023-05-15T06:13:37.120Z,67.15
2023-05-15T06:14:11.877Z,63.42
2023-05-15T06:14:44.216Z,73.18
2023-05-15T06:15:19.198Z,102.85
2023-05-15T06:15:54.512Z,99.45
2023-05-15T06:16:26.945Z,97.35
2023-05-15T06:16:59.108Z,56.28
2023-05-15T06:17:33.928Z,105.78
2023-05-15T06:18:06.390Z,56.60
2023-05-15T06:18:38.573Z,59.97
2023-05-15T06:19:13.330Z,81.63
2023-05-15T06:19:45.470Z,76.90
2023-05-15T06:20:18.176Z,104.43
2023-05-15T06:20:53.605Z,65.90
2023-05-15T06:21:25.718Z,101.75
2023-05-15T06:21:57.861Z,91.18
2023-05-15T06:22:33.215Z,92.10
2023-05-15T06:23:05.674Z,70.32
2023-05-15T06:23:37.914Z,102.47
2023-05-15T06:24:12.624Z,96.70
2023-05-15T06:24:44.793Z,65.88
2023-05-15T06:25:16.979Z,73.10
2023-05-15T06:25:51.813Z,105.75
2023-05-15T06:26:24.257Z,47.97
2023-05-15T06:26:56.850Z,85.57
2023-05-15T06:27:31.829Z,51.80
2023-05-15T06:28:04.411Z,53.35
2023-05-15T06:28:39.239Z,74.50
2023-05-15T06:29:11.528Z,83.13
2023-05-15T06:29:43.688Z,100.55
2023-05-15T06:30:21.332Z,89.85
2023-05-15T06:30:53.591Z,67.05
2023-05-15T06:31:26.107Z,55.30
2023-05-15T06:32:00.957Z,79.55
2023-05-15T06:32:34.539Z,85.15
2023-05-15T06:33:09.515Z,66.25
2023-05-15T06:33:41.741Z,47.72
2023-05-15T06:34:16.646Z,86.43
2023-05-15T06:34:48.858Z,82.93
2023-05-15T06:35:24.237Z,64.25
2023-05-15T06:35:56.590Z,73.80
2023-05-15T06:36:31.493Z,50.55
2023-05-15T06:37:03.814Z,69.95
2023-05-15T06:37:36.872Z,88.75
2023-05-15T06:38:11.595Z,73.20
2023-05-15T06:38:43.704Z,71.70
2023-05-15T06:39:18.486Z,99.38
2023-05-15T06:39:50.795Z,89.75
2023-05-15T06:40:23.357Z,102.47
2023-05-15T06:40:58.278Z,88.53
2023-05-15T06:41:30.465Z,100.38
2023-05-15T06:42:02.712Z,71.95
2023-05-15T06:42:37.892Z,79.80
2023-05-15T06:43:10.004Z,101.47
2023-05-15T06:43:42.130Z,93.68
2023-05-15T06:44:16.839Z,137.88
2023-05-15T06:44:49.815Z,57.22
2023-05-15T06:45:27.752Z,102.38
2023-05-15T06:46:00.182Z,111.22
2023-05-15T06:46:32.670Z,51.00
2023-05-15T06:47:08.332Z,76.45
2023-05-15T06:47:40.708Z,77.65
2023-05-15T06:48:15.558Z,82.68
2023-05-15T06:48:47.809Z,91.60
2023-05-15T06:49:19.994Z,83.45
2023-05-15T06:49:56.899Z,66.70
2023-05-15T06:50:29.143Z,71.65
2023-05-15T06:51:01.395Z,78.45
2023-05-15T06:51:36.202Z,51.78
2023-05-15T06:52:08.493Z,51.90
2023-05-15T06:52:40.655Z,43.45
2023-05-15T06:53:15.387Z,38.17
2023-05-15T06:53:47.596Z,55.92
2023-05-15T06:54:19.721Z,37.75
2023-05-15T06:54:54.851Z,66.22
2023-05-15T06:55:27.168Z,82.82
2023-05-15T06:55:59.570Z,68.35
2023-05-15T06:56:34.433Z,20.52
2023-05-15T06:57:06.735Z,51.17
2023-05-15T06:57:41.453Z,46.22
2023-05-15T06:58:13.768Z,39.25
2023-05-15T06:58:48.541Z,52.67
2023-05-15T06:59:20.780Z,58.60
2023-05-15T06:59:53.029Z,59.70
2023-05-15T07:00:30.649Z,76.75
2023-05-15T07:01:04.138Z,70.28
2023-05-15T07:01:36.404Z,36.65
2023-05-15T07:02:11.335Z,71.57
2023-05-15T07:02:44.108Z,49.67
2023-05-15T07:03:16.901Z,51.58
2023-05-15T07:03:51.633Z,67.88
2023-05-15T07:04:23.830Z,84.25
2023-05-15T07:04:58.680Z,69.68
2023-05-15T07:05:31.084Z,66.57
2023-05-15T07:06:03.390Z,35.40
2023-05-15T07:06:38.112Z,71.60
2023-05-15T07:07:10.385Z,35.78
2023-05-15T07:07:46.093Z,36.85
2023-05-15T07:08:18.305Z,53.78
2023-05-15T07:08:50.492Z,72.75
2023-05-15T07:09:25.266Z,57.70
2023-05-15T07:09:57.409Z,53.03
2023-05-15T07:10:29.631Z,111.47
2023-05-15T07:11:04.314Z,26.88
2023-05-15T07:11:39.001Z,93.78
2023-05-15T07:12:13.774Z,62.20
2023-05-15T07:12:46.222Z,104.45
2023-05-15T07:13:19.077Z,109.10
2023-05-15T07:13:54.504Z,48.63
2023-05-15T07:14:26.659Z,52.20
2023-05-15T07:14:58.848Z,51.88
2023-05-15T07:15:36.145Z,29.90
2023-05-15T07:16:08.415Z,56.78
2023-05-15T07:16:40.966Z,96.35
2023-05-15T07:17:16.393Z,59.92
2023-05-15T07:17:48.712Z,45.05
2023-05-15T07:18:20.865Z,53.15
2023-05-15T07:18:55.756Z,53.67
2023-05-15T07:19:27.955Z,50.95
2023-05-15T07:20:00.606Z,74.75
2023-05-15T07:20:35.494Z,124.70
2023-05-15T07:21:07.842Z,66.30
2023-05-15T07:21:40.787Z,89.32
2023-05-15T07:22:15.542Z,32.55